Terminal Aerodrome Forecast
Issued by NWS

Home | Current Version | Previous Version | Text Only | Print | Product List | Glossary On
Versions: 1 2 3 4 5 6 7 8 9 10 11 12 13
000
FTUS45 KABQ 191100
TAFLVS
TAF
KLVS 191129Z 1912/2012 32005KT P6SM SKC
     FM192000 20010KT P6SM SKC
     FM200200 02005KT P6SM SCT250=

USA.gov is the U.S. government's official web portal to all federal, state and local government web resources and services.